createdAt,value
2023-05-01T00:00:48.707Z,32.73
2023-05-01T00:01:47.900Z,32.66
2023-05-01T00:02:48.039Z,32.73
2023-05-01T00:03:48.075Z,32.76
2023-05-01T00:04:47.943Z,32.73
2023-05-01T00:05:48.195Z,32.68
2023-05-01T00:06:48.005Z,32.70
2023-05-01T00:07:47.935Z,32.70
2023-05-01T00:08:47.944Z,32.72
2023-05-01T00:09:47.954Z,32.75
2023-05-01T00:10:48.682Z,32.70
2023-05-01T00:11:47.970Z,32.69
2023-05-01T00:12:47.962Z,32.72
2023-05-01T00:13:48.039Z,32.73
2023-05-01T00:14:47.981Z,32.73
2023-05-01T00:15:48.168Z,32.73
2023-05-01T00:16:48.156Z,32.66
2023-05-01T00:17:48.012Z,32.71
2023-05-01T00:18:48.041Z,32.72
2023-05-01T00:19:48.023Z,32.70
2023-05-01T00:20:48.081Z,32.69
2023-05-01T00:21:48.051Z,32.67
2023-05-01T00:22:48.100Z,32.68
2023-05-01T00:23:48.109Z,32.74
2023-05-01T00:24:48.155Z,32.69
2023-05-01T00:25:48.112Z,32.71
2023-05-01T00:26:48.119Z,32.70
2023-05-01T00:27:48.118Z,32.67
2023-05-01T00:28:48.156Z,32.72
2023-05-01T00:29:48.139Z,32.69
2023-05-01T00:30:48.153Z,32.74
2023-05-01T00:31:48.180Z,32.64
2023-05-01T00:32:48.225Z,32.69
2023-05-01T00:33:48.170Z,32.67
2023-05-01T00:34:48.196Z,32.72
2023-05-01T00:35:48.730Z,32.67
2023-05-01T00:36:49.889Z,32.71
2023-05-01T00:37:48.258Z,32.67
2023-05-01T00:38:48.234Z,32.67
2023-05-01T00:39:48.241Z,32.67
2023-05-01T00:40:48.720Z,32.69
2023-05-01T00:41:48.249Z,32.73
2023-05-01T00:42:48.285Z,32.71
2023-05-01T00:43:48.298Z,32.73
2023-05-01T00:44:48.309Z,32.66
2023-05-01T00:45:48.320Z,32.66
2023-05-01T00:46:48.290Z,32.67
2023-05-01T00:47:48.355Z,32.66
2023-05-01T00:48:48.303Z,32.63
2023-05-01T00:49:48.333Z,32.66
2023-05-01T00:50:48.325Z,32.69
2023-05-01T00:51:48.346Z,32.64
2023-05-01T00:52:48.327Z,32.67
2023-05-01T00:53:48.327Z,32.64
2023-05-01T00:54:48.356Z,32.66
2023-05-01T00:55:48.397Z,32.67
2023-05-01T00:56:48.354Z,32.66
2023-05-01T00:57:48.375Z,32.64
2023-05-01T00:58:48.376Z,32.67
2023-05-01T00:59:48.371Z,32.66
2023-05-01T01:00:48.437Z,32.67
2023-05-01T01:01:48.437Z,32.63
2023-05-01T01:02:48.475Z,32.64
2023-05-01T01:03:48.450Z,32.66
2023-05-01T01:04:48.615Z,32.63
2023-05-01T01:05:48.465Z,32.69
2023-05-01T01:06:48.521Z,32.67
2023-05-01T01:07:48.506Z,32.67
2023-05-01T01:08:48.517Z,32.64
2023-05-01T01:09:48.455Z,32.64
2023-05-01T01:10:48.477Z,32.71
2023-05-01T01:11:48.532Z,32.63
2023-05-01T01:12:48.468Z,32.66
2023-05-01T01:13:48.467Z,32.64
2023-05-01T01:14:48.452Z,32.66
2023-05-01T01:15:48.455Z,32.63
2023-05-01T01:16:48.464Z,32.63
2023-05-01T01:17:48.500Z,32.66
2023-05-01T01:18:48.473Z,32.64
2023-05-01T01:19:48.482Z,32.67
2023-05-01T01:20:48.487Z,32.68
2023-05-01T01:21:48.468Z,32.68
2023-05-01T01:22:48.435Z,32.67
2023-05-01T01:23:48.469Z,32.62
2023-05-01T01:24:48.442Z,32.63
2023-05-01T01:25:48.484Z,32.59
2023-05-01T01:26:48.422Z,32.63
2023-05-01T01:27:48.480Z,32.62
2023-05-01T01:28:48.444Z,32.62
2023-05-01T01:29:48.441Z,32.67
2023-05-01T01:30:48.539Z,32.62
2023-05-01T01:31:48.464Z,32.64
2023-05-01T01:32:48.471Z,32.64
2023-05-01T01:33:48.469Z,32.63
2023-05-01T01:34:48.443Z,32.64
2023-05-01T01:35:48.451Z,32.62
2023-05-01T01:36:48.461Z,32.65
2023-05-01T01:37:48.461Z,32.64
2023-05-01T01:38:48.445Z,32.64
2023-05-01T01:39:48.459Z,32.64
2023-05-01T01:40:48.452Z,32.63
2023-05-01T01:41:48.453Z,32.62
2023-05-01T01:42:48.471Z,32.63
2023-05-01T01:43:48.491Z,32.60
2023-05-01T01:44:48.450Z,32.60
2023-05-01T01:45:48.482Z,32.68
2023-05-01T01:46:48.498Z,32.65
2023-05-01T01:47:48.503Z,32.62
2023-05-01T01:48:48.446Z,32.60
2023-05-01T01:49:48.451Z,32.64
2023-05-01T01:50:48.494Z,32.59
2023-05-01T01:51:48.454Z,32.63
2023-05-01T01:52:48.435Z,32.60
2023-05-01T01:53:48.471Z,32.58
2023-05-01T01:54:48.453Z,32.63
2023-05-01T01:55:48.741Z,32.59
2023-05-01T01:56:48.478Z,32.60
2023-05-01T01:57:48.465Z,32.62
2023-05-01T01:58:48.469Z,32.61
2023-05-01T01:59:48.485Z,32.62
2023-05-01T02:00:48.492Z,32.59
2023-05-01T02:01:48.552Z,32.58
2023-05-01T02:02:48.598Z,32.58
2023-05-01T02:03:48.573Z,32.61
2023-05-01T02:04:48.503Z,32.62
2023-05-01T02:05:48.523Z,32.60
2023-05-01T02:06:48.556Z,32.61
2023-05-01T02:07:48.547Z,32.64
2023-05-01T02:08:48.515Z,32.57
2023-05-01T02:09:48.516Z,32.58
2023-05-01T02:10:48.580Z,32.60
2023-05-01T02:11:48.551Z,32.61
2023-05-01T02:12:48.540Z,32.58
2023-05-01T02:13:48.517Z,32.58
2023-05-01T02:14:49.212Z,32.57
2023-05-01T02:15:48.578Z,32.59
2023-05-01T02:16:48.534Z,32.61
2023-05-01T02:17:48.568Z,32.61
2023-05-01T02:18:48.570Z,32.58
2023-05-01T02:19:48.566Z,32.58
2023-05-01T02:20:48.743Z,32.62
2023-05-01T02:21:48.559Z,32.61
2023-05-01T02:22:48.609Z,32.57
2023-05-01T02:23:48.533Z,32.57
2023-05-01T02:24:48.540Z,32.58
2023-05-01T02:25:48.721Z,32.57
2023-05-01T02:26:48.567Z,32.62
2023-05-01T02:27:48.554Z,32.58
2023-05-01T02:28:48.579Z,32.57
2023-05-01T02:29:48.567Z,32.57
2023-05-01T02:30:48.767Z,32.58
2023-05-01T02:31:48.588Z,32.54
2023-05-01T02:32:48.612Z,32.54
2023-05-01T02:33:48.624Z,32.57
2023-05-01T02:34:48.614Z,32.57
2023-05-01T02:35:48.739Z,32.59
2023-05-01T02:36:48.627Z,32.58
2023-05-01T02:37:48.646Z,32.57
2023-05-01T02:38:48.645Z,32.58
2023-05-01T02:39:48.656Z,32.58
2023-05-01T02:40:48.725Z,32.57
2023-05-01T02:41:48.661Z,32.58
2023-05-01T02:42:48.694Z,32.62
2023-05-01T02:43:48.695Z,32.57
2023-05-01T02:44:48.697Z,32.57
2023-05-01T02:45:48.728Z,32.54
2023-05-01T02:46:48.726Z,32.54
2023-05-01T02:47:48.736Z,32.56
2023-05-01T02:48:48.737Z,32.55
2023-05-01T02:49:48.714Z,32.52
2023-05-01T02:50:48.748Z,32.56
2023-05-01T02:51:48.709Z,32.55
2023-05-01T02:52:48.696Z,32.56
2023-05-01T02:53:48.715Z,32.61
2023-05-01T02:54:48.724Z,32.56
2023-05-01T02:55:48.772Z,32.51
2023-05-01T02:56:48.756Z,32.58
2023-05-01T02:57:48.762Z,32.58
2023-05-01T02:58:48.802Z,32.58
2023-05-01T02:59:48.756Z,32.56
2023-05-01T03:00:48.814Z,32.59
2023-05-01T03:01:48.901Z,32.53
2023-05-01T03:02:48.863Z,32.52
2023-05-01T03:03:48.860Z,32.58
2023-05-01T03:04:48.929Z,32.55
2023-05-01T03:05:48.832Z,32.56
2023-05-01T03:06:48.907Z,32.61
2023-05-01T03:07:48.926Z,32.58
2023-05-01T03:08:48.884Z,32.57
2023-05-01T03:09:48.926Z,32.58
2023-05-01T03:10:48.937Z,32.58
2023-05-01T03:11:48.921Z,32.54
2023-05-01T03:12:48.956Z,32.54
2023-05-01T03:13:48.955Z,32.56
2023-05-01T03:14:48.960Z,32.53
2023-05-01T03:15:49.275Z,32.53
2023-05-01T03:16:48.949Z,32.55
2023-05-01T03:17:48.999Z,32.58
2023-05-01T03:18:48.978Z,32.56
2023-05-01T03:19:48.959Z,32.56
2023-05-01T03:20:49.275Z,32.58
2023-05-01T03:21:48.953Z,32.55
2023-05-01T03:22:48.947Z,32.56
2023-05-01T03:23:48.967Z,32.53
2023-05-01T03:24:48.948Z,32.56
2023-05-01T03:25:48.988Z,32.55
2023-05-01T03:26:48.963Z,32.52
2023-05-01T03:27:48.993Z,32.53
2023-05-01T03:28:49.007Z,32.58
2023-05-01T03:29:49.019Z,32.55
2023-05-01T03:30:49.257Z,32.58
2023-05-01T03:31:49.019Z,32.55
2023-05-01T03:32:49.093Z,32.53
2023-05-01T03:33:49.029Z,32.55
2023-05-01T03:34:49.051Z,32.55
2023-05-01T03:35:49.238Z,32.57
2023-05-01T03:36:49.058Z,32.59
2023-05-01T03:37:49.057Z,32.52
2023-05-01T03:38:49.086Z,32.52
2023-05-01T03:39:49.127Z,32.55
2023-05-01T03:40:49.285Z,32.55
2023-05-01T03:41:49.152Z,32.51
2023-05-01T03:42:49.107Z,32.59
2023-05-01T03:43:49.174Z,32.58
2023-05-01T03:44:49.170Z,32.56
2023-05-01T03:45:49.207Z,32.52
2023-05-01T03:46:49.177Z,32.59
2023-05-01T03:47:49.189Z,32.57
2023-05-01T03:48:49.148Z,32.53
2023-05-01T03:49:49.156Z,32.53
2023-05-01T03:50:49.147Z,32.52
2023-05-01T03:51:49.164Z,32.55
2023-05-01T03:52:49.156Z,32.53
2023-05-01T03:53:49.167Z,32.52
2023-05-01T03:54:49.180Z,32.52
2023-05-01T03:55:49.155Z,32.52
2023-05-01T03:56:49.141Z,32.53
2023-05-01T03:57:49.172Z,32.53
2023-05-01T03:58:49.208Z,32.55
2023-05-01T03:59:49.140Z,32.52
2023-05-01T04:00:49.185Z,32.52
2023-05-01T04:01:49.190Z,32.49
2023-05-01T04:02:49.358Z,32.52
2023-05-01T04:03:49.317Z,32.55
2023-05-01T04:04:49.172Z,32.55
2023-05-01T04:05:49.223Z,32.52
2023-05-01T04:06:49.317Z,32.56
2023-05-01T04:07:49.169Z,32.55
2023-05-01T04:08:49.231Z,32.52
2023-05-01T04:09:49.234Z,32.55
2023-05-01T04:10:49.235Z,32.54
2023-05-01T04:11:49.241Z,32.56
2023-05-01T04:12:49.262Z,32.53
2023-05-01T04:13:49.230Z,32.56
2023-05-01T04:14:49.259Z,32.50
2023-05-01T04:15:49.282Z,32.54
2023-05-01T04:16:49.298Z,32.55
2023-05-01T04:17:49.304Z,32.54
2023-05-01T04:18:49.310Z,32.50
2023-05-01T04:19:49.241Z,32.55
2023-05-01T04:20:49.313Z,32.56
2023-05-01T04:21:49.255Z,32.52
2023-05-01T04:22:49.314Z,32.55
2023-05-01T04:23:49.302Z,32.52
2023-05-01T04:24:49.296Z,32.57
2023-05-01T04:25:49.323Z,32.56
2023-05-01T04:26:49.326Z,32.50
2023-05-01T04:27:49.357Z,32.49
2023-05-01T04:28:49.359Z,32.50
2023-05-01T04:29:49.353Z,32.52
2023-05-01T04:30:49.358Z,32.52
2023-05-01T04:31:49.366Z,32.53
2023-05-01T04:32:49.353Z,32.49
2023-05-01T04:33:49.336Z,32.55
2023-05-01T04:34:49.354Z,32.52
2023-05-01T04:35:49.262Z,32.49
2023-05-01T04:36:49.320Z,32.55
2023-05-01T04:37:49.460Z,32.53
2023-05-01T04:38:49.393Z,32.53
2023-05-01T04:39:49.355Z,32.52
2023-05-01T04:40:49.415Z,32.53
2023-05-01T04:41:49.392Z,32.52
2023-05-01T04:42:49.329Z,32.50
2023-05-01T04:43:49.330Z,32.53
2023-05-01T04:44:49.459Z,32.50
2023-05-01T04:45:49.465Z,32.45
2023-05-01T04:46:49.536Z,32.50
2023-05-01T04:47:49.486Z,32.52
2023-05-01T04:48:49.342Z,32.49
2023-05-01T04:49:49.387Z,32.52
2023-05-01T04:50:49.376Z,32.46
2023-05-01T04:51:49.371Z,32.50
2023-05-01T04:52:49.375Z,32.47
2023-05-01T04:53:49.347Z,32.52
2023-05-01T04:54:49.333Z,32.46
2023-05-01T04:55:49.351Z,32.53
2023-05-01T04:56:49.361Z,32.60
2023-05-01T04:57:49.329Z,32.60
2023-05-01T04:58:49.359Z,32.63
2023-05-01T04:59:49.376Z,32.62
2023-05-01T05:00:49.394Z,32.67
2023-05-01T05:01:49.492Z,32.70
2023-05-01T05:02:49.516Z,32.70
2023-05-01T05:03:50.384Z,32.73
2023-05-01T05:04:49.542Z,32.73
2023-05-01T05:05:49.671Z,32.76
2023-05-01T05:06:49.732Z,32.78
2023-05-01T05:07:49.662Z,32.83
2023-05-01T05:08:49.686Z,32.82
2023-05-01T05:09:49.695Z,32.81
2023-05-01T05:10:49.781Z,32.78
2023-05-01T05:11:49.759Z,32.84
2023-05-01T05:12:49.794Z,32.85
2023-05-01T05:13:49.882Z,32.86
2023-05-01T05:14:49.900Z,32.89
2023-05-01T05:15:49.945Z,32.93
2023-05-01T05:16:50.363Z,32.93
2023-05-01T05:17:50.092Z,32.96
2023-05-01T05:18:50.064Z,32.93
2023-05-01T05:19:50.111Z,32.95
2023-05-01T05:20:50.125Z,33.00
2023-05-01T05:21:50.177Z,32.97
2023-05-01T05:22:50.262Z,32.97
2023-05-01T05:23:50.241Z,33.02
2023-05-01T05:24:50.285Z,33.05
2023-05-01T05:25:50.352Z,33.05
2023-05-01T05:26:50.363Z,33.05
2023-05-01T05:27:50.431Z,33.08
2023-05-01T05:28:50.489Z,33.10
2023-05-01T05:29:50.442Z,33.11
2023-05-01T05:30:50.522Z,33.12
2023-05-01T05:31:50.854Z,33.09
2023-05-01T05:32:50.575Z,33.12
2023-05-01T05:33:50.634Z,33.19
2023-05-01T05:34:50.652Z,33.10
2023-05-01T05:35:50.659Z,33.13
2023-05-01T05:36:50.848Z,33.12
2023-05-01T05:37:50.708Z,33.10
2023-05-01T05:38:50.760Z,33.16
2023-05-01T05:39:50.808Z,33.10
2023-05-01T05:40:50.832Z,33.20
2023-05-01T05:41:51.319Z,33.15
2023-05-01T05:42:50.871Z,33.16
2023-05-01T05:43:50.918Z,33.13
2023-05-01T05:44:50.932Z,33.16
2023-05-01T05:45:50.992Z,33.18
2023-05-01T05:46:51.009Z,33.11
2023-05-01T05:47:51.089Z,33.18
2023-05-01T05:48:51.025Z,33.18
2023-05-01T05:49:51.101Z,33.18
2023-05-01T05:50:51.092Z,33.20
2023-05-01T05:51:51.129Z,33.19
2023-05-01T05:52:51.162Z,33.16
2023-05-01T05:53:51.166Z,33.20
2023-05-01T05:54:51.216Z,33.15
2023-05-01T05:55:51.246Z,33.18
2023-05-01T05:56:51.246Z,33.20
2023-05-01T05:57:51.308Z,33.19
2023-05-01T05:58:51.310Z,33.18
2023-05-01T05:59:51.362Z,33.23
2023-05-01T06:00:51.411Z,33.24
2023-05-01T06:01:51.392Z,33.23
2023-05-01T06:02:51.562Z,33.22
2023-05-01T06:03:51.542Z,33.26
2023-05-01T06:04:51.470Z,33.23
2023-05-01T06:05:51.583Z,33.25
2023-05-01T06:06:51.879Z,33.23
2023-05-01T06:07:51.581Z,33.22
2023-05-01T06:08:51.572Z,33.19
2023-05-01T06:09:51.622Z,33.23
2023-05-01T06:10:51.614Z,33.22
2023-05-01T06:11:51.628Z,33.28
2023-05-01T06:13:02.602Z,33.23
2023-05-01T06:13:52.649Z,33.25
2023-05-01T06:14:51.625Z,33.22
2023-05-01T06:15:51.625Z,33.21
2023-05-01T06:16:51.597Z,33.26
2023-05-01T06:17:51.676Z,33.27
2023-05-01T06:18:51.575Z,33.28
2023-05-01T06:19:51.591Z,33.25
2023-05-01T06:20:51.601Z,33.28
2023-05-01T06:21:51.601Z,33.30
2023-05-01T06:22:51.571Z,33.29
2023-05-01T06:23:51.581Z,33.30
2023-05-01T06:24:51.547Z,33.33
2023-05-01T06:25:51.586Z,33.33
2023-05-01T06:26:51.529Z,33.27
2023-05-01T06:27:51.537Z,33.28
2023-05-01T06:28:51.502Z,33.33
2023-05-01T06:29:51.500Z,33.33
2023-05-01T06:30:51.477Z,33.29
2023-05-01T06:31:51.621Z,33.32
2023-05-01T06:32:51.604Z,33.33
2023-05-01T06:33:51.490Z,33.31
2023-05-01T06:34:51.504Z,33.28
2023-05-01T06:35:51.481Z,33.34
2023-05-01T06:36:51.494Z,33.33
2023-05-01T06:37:51.468Z,33.38
2023-05-01T06:38:51.477Z,33.40
2023-05-01T06:39:51.446Z,33.39
2023-05-01T06:40:51.481Z,33.44
2023-05-01T06:41:51.843Z,33.45
2023-05-01T06:42:51.445Z,33.42
2023-05-01T06:43:51.463Z,33.41
2023-05-01T06:44:51.455Z,33.41
2023-05-01T06:45:51.464Z,33.42
2023-05-01T06:46:52.350Z,33.48
2023-05-01T06:47:51.575Z,33.49
2023-05-01T06:48:51.486Z,33.45
2023-05-01T06:49:51.492Z,33.51
2023-05-01T06:50:51.510Z,33.53
2023-05-01T06:51:51.547Z,33.53
2023-05-01T06:52:51.527Z,33.49
2023-05-01T06:53:51.568Z,33.52
2023-05-01T06:54:51.540Z,33.52
2023-05-01T06:55:51.589Z,33.56
2023-05-01T06:56:51.592Z,33.56
2023-05-01T06:57:51.594Z,33.54
2023-05-01T06:58:51.596Z,33.59
2023-05-01T06:59:51.725Z,33.56
2023-05-01T07:00:51.677Z,33.56
2023-05-01T07:01:51.774Z,33.59
2023-05-01T07:02:51.836Z,33.62
2023-05-01T07:03:51.742Z,33.59
2023-05-01T07:04:51.786Z,33.57
2023-05-01T07:05:51.818Z,33.57
2023-05-01T07:06:51.850Z,33.64
2023-05-01T07:08:00.791Z,33.57
2023-05-01T07:08:52.812Z,33.57
2023-05-01T07:09:51.829Z,33.60
2023-05-01T07:10:51.833Z,33.57
2023-05-01T07:11:51.794Z,33.57
2023-05-01T07:12:51.801Z,33.60
2023-05-01T07:13:51.775Z,33.63
2023-05-01T07:14:51.924Z,33.62
2023-05-01T07:15:54.351Z,33.59
2023-05-01T07:16:51.878Z,33.59
2023-05-01T07:17:51.849Z,33.60
2023-05-01T07:18:51.741Z,33.60
2023-05-01T07:19:51.751Z,33.63
2023-05-01T07:20:51.722Z,33.62
2023-05-01T07:21:51.743Z,33.62
2023-05-01T07:22:51.694Z,33.57
2023-05-01T07:23:51.669Z,33.59
2023-05-01T07:24:51.679Z,33.59
2023-05-01T07:25:51.687Z,33.62
2023-05-01T07:26:51.700Z,33.60
2023-05-01T07:27:51.655Z,33.57
2023-05-01T07:28:51.668Z,33.63
2023-05-01T07:29:51.655Z,33.60
2023-05-01T07:30:51.678Z,33.59
2023-05-01T07:31:51.693Z,33.63
2023-05-01T07:32:51.860Z,33.63
2023-05-01T07:33:54.074Z,33.59
2023-05-01T07:34:51.821Z,33.60
2023-05-01T07:35:51.856Z,33.57
2023-05-01T07:36:51.860Z,33.59
2023-05-01T07:37:51.870Z,33.57
2023-05-01T07:38:51.959Z,33.59
2023-05-01T07:39:51.942Z,33.61
2023-05-01T07:40:51.998Z,33.59
2023-05-01T07:41:51.999Z,33.55
2023-05-01T07:42:54.474Z,33.56
2023-05-01T07:43:51.958Z,33.56
2023-05-01T07:44:51.967Z,33.55
2023-05-01T07:45:52.029Z,33.54
2023-05-01T07:46:51.989Z,33.55
2023-05-01T07:47:52.024Z,33.56
2023-05-01T07:48:51.981Z,33.59
2023-05-01T07:49:51.940Z,33.55
2023-05-01T07:50:51.956Z,33.56
2023-05-01T07:51:51.972Z,33.51
2023-05-01T07:52:52.338Z,33.50
2023-05-01T07:53:51.916Z,33.55
2023-05-01T07:54:51.922Z,33.55
2023-05-01T07:55:51.884Z,33.50
2023-05-01T07:56:51.934Z,33.52
2023-05-01T07:57:52.330Z,33.50
2023-05-01T07:58:51.878Z,33.51
2023-05-01T07:59:51.912Z,33.47
2023-05-01T08:00:51.883Z,33.51
2023-05-01T08:01:51.858Z,33.45
2023-05-01T08:02:51.980Z,33.45
2023-05-01T08:03:51.875Z,33.42
2023-05-01T08:04:52.025Z,33.46
2023-05-01T08:05:51.835Z,33.43
2023-05-01T08:06:51.961Z,33.43
2023-05-01T08:07:51.857Z,33.46
2023-05-01T08:08:51.839Z,33.40
2023-05-01T08:09:51.795Z,33.39
2023-05-01T08:10:51.787Z,33.40
2023-05-01T08:11:51.781Z,33.40
2023-05-01T08:12:51.795Z,33.37
2023-05-01T08:13:51.763Z,33.32
2023-05-01T08:14:51.818Z,33.35
2023-05-01T08:15:51.906Z,33.38
2023-05-01T08:16:51.784Z,33.34
2023-05-01T08:17:51.888Z,33.32
2023-05-01T08:18:51.796Z,33.35
2023-05-01T08:19:51.797Z,33.27
2023-05-01T08:20:51.765Z,33.32
2023-05-01T08:21:51.797Z,33.34
2023-05-01T08:22:51.768Z,33.29
2023-05-01T08:23:51.774Z,33.28
2023-05-01T08:24:51.742Z,33.30
2023-05-01T08:25:51.724Z,33.27
2023-05-01T08:26:51.723Z,33.29
2023-05-01T08:27:51.790Z,33.29
2023-05-01T08:28:51.700Z,33.30
2023-05-01T08:29:51.712Z,33.29
2023-05-01T08:30:51.738Z,33.31
2023-05-01T08:31:51.867Z,33.30
2023-05-01T08:32:51.907Z,33.30
2023-05-01T08:33:51.683Z,33.26
2023-05-01T08:34:51.750Z,33.31
2023-05-01T08:35:51.697Z,33.26
2023-05-01T08:36:51.659Z,33.27
2023-05-01T08:37:51.661Z,33.26
2023-05-01T08:38:51.656Z,33.23
2023-05-01T08:39:51.603Z,33.24
2023-05-01T08:40:51.672Z,33.23
2023-05-01T08:41:51.612Z,33.24
2023-05-01T08:42:51.617Z,33.31
2023-05-01T08:43:51.602Z,33.27
2023-05-01T08:44:51.608Z,33.26
2023-05-01T08:45:51.639Z,33.24
2023-05-01T08:46:51.589Z,33.29
2023-05-01T08:47:51.894Z,33.27
2023-05-01T08:48:51.568Z,33.29
2023-05-01T08:49:51.586Z,33.26
2023-05-01T08:50:51.756Z,33.24
2023-05-01T08:51:51.542Z,33.27
2023-05-01T08:52:51.887Z,33.26
2023-05-01T08:53:51.563Z,33.23
2023-05-01T08:54:51.501Z,33.24
2023-05-01T08:55:51.517Z,33.23
2023-05-01T08:56:51.523Z,33.25
2023-05-01T08:57:51.508Z,33.23
2023-05-01T08:58:51.501Z,33.23
2023-05-01T08:59:51.453Z,33.27
2023-05-01T09:00:51.490Z,33.27
2023-05-01T09:01:51.508Z,33.26
2023-05-01T09:02:51.488Z,33.26
2023-05-01T09:03:51.514Z,33.21
2023-05-01T09:04:51.441Z,33.21
2023-05-01T09:05:51.433Z,33.22
2023-05-01T09:06:51.619Z,33.25
2023-05-01T09:07:51.435Z,33.30
2023-05-01T09:08:51.451Z,33.27
2023-05-01T09:09:51.396Z,33.26
2023-05-01T09:10:51.408Z,33.30
2023-05-01T09:11:51.396Z,33.28
2023-05-01T09:12:51.371Z,33.28
2023-05-01T09:13:51.334Z,33.38
2023-05-01T09:14:51.343Z,33.39
2023-05-01T09:15:51.449Z,33.32
2023-05-01T09:16:51.518Z,33.39
2023-05-01T09:17:51.380Z,33.40
2023-05-01T09:18:51.366Z,33.44
2023-05-01T09:19:51.334Z,33.42
2023-05-01T09:20:51.303Z,33.43
2023-05-01T09:21:51.336Z,33.49
2023-05-01T09:22:51.377Z,33.46
2023-05-01T09:23:51.330Z,33.50
2023-05-01T09:24:51.285Z,33.48
2023-05-01T09:25:52.074Z,33.49
2023-05-01T09:26:51.281Z,33.50
2023-05-01T09:27:51.269Z,33.50
2023-05-01T09:28:51.296Z,33.48
2023-05-01T09:29:51.307Z,33.52
2023-05-01T09:30:51.256Z,33.52
2023-05-01T09:31:51.281Z,33.53
2023-05-01T09:32:51.429Z,33.56
2023-05-01T09:33:51.219Z,33.59
2023-05-01T09:34:51.222Z,33.57
2023-05-01T09:35:51.241Z,33.59
2023-05-01T09:36:51.199Z,33.56
2023-05-01T09:37:51.244Z,33.60
2023-05-01T09:38:51.250Z,33.59
2023-05-01T09:39:51.178Z,33.56
2023-05-01T09:40:51.152Z,33.60
2023-05-01T09:41:51.169Z,33.66
2023-05-01T09:42:51.178Z,33.66
2023-05-01T09:43:51.141Z,33.63
2023-05-01T09:44:51.206Z,33.66
2023-05-01T09:45:51.163Z,33.66
2023-05-01T09:46:51.153Z,33.62
2023-05-01T09:47:51.158Z,33.65
2023-05-01T09:48:51.130Z,33.64
2023-05-01T09:49:51.148Z,33.68
2023-05-01T09:50:51.123Z,33.61
2023-05-01T09:51:51.171Z,33.61
2023-05-01T09:52:51.148Z,33.64
2023-05-01T09:53:51.162Z,33.64
2023-05-01T09:54:51.069Z,33.61
2023-05-01T09:55:51.156Z,33.68
2023-05-01T09:56:51.188Z,33.67
2023-05-01T09:57:51.130Z,33.64
2023-05-01T09:58:51.044Z,33.66
2023-05-01T09:59:51.018Z,33.72
2023-05-01T10:00:51.094Z,33.72
2023-05-01T10:01:51.093Z,33.69
2023-05-01T10:02:51.110Z,33.75
2023-05-01T10:03:51.361Z,33.75
2023-05-01T10:04:50.980Z,33.74
2023-05-01T10:05:50.985Z,33.75
2023-05-01T10:06:51.154Z,33.73
2023-05-01T10:07:51.390Z,33.75
2023-05-01T10:08:50.953Z,33.79
2023-05-01T10:09:51.004Z,33.79
2023-05-01T10:10:50.979Z,33.77
2023-05-01T10:11:50.967Z,33.76
2023-05-01T10:12:51.555Z,33.80
2023-05-01T10:13:50.972Z,33.77
2023-05-01T10:14:50.921Z,33.77
2023-05-01T10:15:50.929Z,33.79
2023-05-01T10:16:51.000Z,33.77
2023-05-01T10:17:50.942Z,33.77
2023-05-01T10:18:50.909Z,33.82
2023-05-01T10:19:50.929Z,33.80
2023-05-01T10:20:50.902Z,33.83
2023-05-01T10:21:50.957Z,33.81
2023-05-01T10:22:50.910Z,33.82
2023-05-01T10:23:50.889Z,33.84
2023-05-01T10:24:50.877Z,33.79
2023-05-01T10:25:50.902Z,33.88
2023-05-01T10:26:50.882Z,33.85
2023-05-01T10:27:50.875Z,33.85
2023-05-01T10:28:50.821Z,33.82
2023-05-01T10:29:50.838Z,33.89
2023-05-01T10:30:50.854Z,33.89
2023-05-01T10:31:50.885Z,33.87
2023-05-01T10:32:50.883Z,33.82
2023-05-01T10:33:50.824Z,33.84
2023-05-01T10:34:50.822Z,33.85
2023-05-01T10:35:50.777Z,33.86
2023-05-01T10:36:50.800Z,33.85
2023-05-01T10:37:50.837Z,33.85
2023-05-01T10:38:50.812Z,33.84
2023-05-01T10:39:50.800Z,33.89
2023-05-01T10:40:50.811Z,33.84
2023-05-01T10:41:50.819Z,33.86
2023-05-01T10:42:50.817Z,33.84
2023-05-01T10:43:50.812Z,33.84
2023-05-01T10:44:50.818Z,33.84
2023-05-01T10:45:50.859Z,33.85
2023-05-01T10:46:50.882Z,33.84
2023-05-01T10:47:50.904Z,33.80
2023-05-01T10:48:50.803Z,33.83
2023-05-01T10:49:50.819Z,33.80
2023-05-01T10:50:50.834Z,33.82
2023-05-01T10:51:50.841Z,33.83
2023-05-01T10:52:50.827Z,33.80
2023-05-01T10:53:50.849Z,33.76
2023-05-01T10:54:50.871Z,33.78
2023-05-01T10:55:50.840Z,33.77
2023-05-01T10:56:50.874Z,33.83
2023-05-01T10:57:50.877Z,33.78
2023-05-01T10:58:50.875Z,33.78
2023-05-01T10:59:50.905Z,33.77
2023-05-01T11:00:50.952Z,33.77
2023-05-01T11:01:50.948Z,33.79
2023-05-01T11:02:51.074Z,33.77
2023-05-01T11:03:50.954Z,33.76
2023-05-01T11:04:51.232Z,33.73
2023-05-01T11:05:51.069Z,33.79
2023-05-01T11:06:51.047Z,33.72
2023-05-01T11:07:50.980Z,33.74
2023-05-01T11:08:50.986Z,33.74
2023-05-01T11:09:51.005Z,33.73
2023-05-01T11:10:51.010Z,33.71
2023-05-01T11:11:51.006Z,33.70
2023-05-01T11:12:51.082Z,33.73
2023-05-01T11:13:50.990Z,33.71
2023-05-01T11:14:51.011Z,33.69
2023-05-01T11:15:51.078Z,33.65
2023-05-01T11:16:51.044Z,33.71
2023-05-01T11:17:51.080Z,33.72
2023-05-01T11:18:51.034Z,33.65
2023-05-01T11:19:51.024Z,33.67
2023-05-01T11:20:51.101Z,33.69
2023-05-01T11:21:51.046Z,33.71
2023-05-01T11:22:51.056Z,33.68
2023-05-01T11:23:51.003Z,33.63
2023-05-01T11:24:51.067Z,33.67
2023-05-01T11:25:51.021Z,33.67
2023-05-01T11:26:51.074Z,33.65
2023-05-01T11:27:51.093Z,33.60
2023-05-01T11:28:51.044Z,33.65
2023-05-01T11:29:51.077Z,33.60
2023-05-01T11:30:51.113Z,33.59
2023-05-01T11:31:51.135Z,33.63
2023-05-01T11:32:51.304Z,33.56
2023-05-01T11:33:51.124Z,33.56
2023-05-01T11:34:51.171Z,33.57
2023-05-01T11:35:51.128Z,33.52
2023-05-01T11:36:51.156Z,33.52
2023-05-01T11:37:51.192Z,33.50
2023-05-01T11:38:51.096Z,33.49
2023-05-01T11:39:51.117Z,33.50
2023-05-01T11:40:51.127Z,33.45
2023-05-01T11:41:51.250Z,33.45
2023-05-01T11:42:51.193Z,33.45
2023-05-01T11:43:51.189Z,33.44
2023-05-01T11:44:51.148Z,33.39
2023-05-01T11:45:51.245Z,33.38
2023-05-01T11:46:51.190Z,33.39
2023-05-01T11:47:51.306Z,33.34
2023-05-01T11:48:51.220Z,33.33
2023-05-01T11:49:51.220Z,33.24
2023-05-01T11:50:51.247Z,33.28
2023-05-01T11:51:51.970Z,33.27
2023-05-01T11:52:51.262Z,33.27
2023-05-01T11:53:51.242Z,33.24
2023-05-01T11:54:51.270Z,33.18
2023-05-01T11:55:51.305Z,33.20
2023-05-01T11:56:51.289Z,33.17
2023-05-01T11:57:51.323Z,33.17
2023-05-01T11:58:51.355Z,33.14
2023-05-01T11:59:51.352Z,33.16
2023-05-01T12:00:51.387Z,33.07
2023-05-01T12:01:51.456Z,33.07
2023-05-01T12:02:51.552Z,33.09
2023-05-01T12:03:51.505Z,33.05
2023-05-01T12:04:51.652Z,33.02
2023-05-01T12:05:51.444Z,33.05
2023-05-01T12:06:51.596Z,32.98
2023-05-01T12:07:51.498Z,33.01
2023-05-01T12:08:51.522Z,33.01
2023-05-01T12:09:51.523Z,32.99
2023-05-01T12:10:51.596Z,32.95
2023-05-01T12:11:52.683Z,32.95
2023-05-01T12:12:51.920Z,32.97
2023-05-01T12:13:51.698Z,32.98
2023-05-01T12:14:51.743Z,32.99
2023-05-01T12:15:51.772Z,32.99
2023-05-01T12:16:51.865Z,32.95
2023-05-01T12:17:51.876Z,32.97
2023-05-01T12:18:51.889Z,32.95
2023-05-01T12:19:51.948Z,32.94
2023-05-01T12:20:52.047Z,32.92
2023-05-01T12:21:51.949Z,32.94
2023-05-01T12:22:52.012Z,32.97
2023-05-01T12:23:51.984Z,32.95
2023-05-01T12:24:52.008Z,32.88
2023-05-01T12:25:52.084Z,32.91
2023-05-01T12:26:52.080Z,32.97
2023-05-01T12:27:52.200Z,32.90
2023-05-01T12:28:52.145Z,32.96
2023-05-01T12:29:52.229Z,32.90
2023-05-01T12:30:52.309Z,32.97
2023-05-01T12:31:52.366Z,32.97
2023-05-01T12:32:52.463Z,32.94
2023-05-01T12:33:52.467Z,32.91
2023-05-01T12:34:52.572Z,32.87
2023-05-01T12:35:52.593Z,32.86
2023-05-01T12:36:52.669Z,32.83
2023-05-01T12:37:52.760Z,32.83
2023-05-01T12:38:52.789Z,32.80
2023-05-01T12:39:52.831Z,32.79
2023-05-01T12:40:52.898Z,32.80
2023-05-01T12:41:52.934Z,32.78
2023-05-01T12:42:53.040Z,32.75
2023-05-01T12:43:53.084Z,32.74
2023-05-01T12:44:53.155Z,32.75
2023-05-01T12:45:53.371Z,32.64
2023-05-01T12:46:53.353Z,32.65
2023-05-01T12:47:53.381Z,32.67
2023-05-01T12:48:54.550Z,32.63
2023-05-01T12:49:53.411Z,32.62
2023-05-01T12:50:53.476Z,32.54
2023-05-01T12:51:53.570Z,32.54
2023-05-01T12:52:53.645Z,32.58